Alamo, Nevada Weather observations

Data are for observation ending at time listed.
 Day   Time    Ave.   Ave.  Ave.  Vector   Max.   Stn.    Total    Solar   Ave.  
  of    of     Air    Rel.  Wind   Wind    Wind   Baro.  Precip.   Rad.    Soil  
Year   Day     Temp.  Hum.  Speed  Dir.    Gust   Pres.                    Temp. 
2014   (PST)    F      %     mph   deg.    mph     mb.     in.     W/m2     F   
------------------------------------------------------------------------------
 329   16:40   50.7    21    0.1   302      0.9   907.5    0.00       0    54.5
 329   16:50   48.8    22    0.4   293      1.6   907.5    0.00       0    54.1
 329   17:00   47.2    22    0.4   293      1.3   907.6    0.00       0    53.6
 329   17:10   45.8    24    0.1   256      0.7   907.7    0.00       0    53.2
 329   17:20   44.7    24    0.2    20      1.0   907.8    0.00       0    52.8
 329   17:30   43.8    26    1.1    20      1.9   907.9    0.00       0    52.3
 329   17:40   43.0    26    0.2    35      1.2   908.0    0.00       0    51.9
 329   17:50   42.3    27    0.0   177      0.6   908.0    0.00       0    51.6
 329   18:00   41.6    28    0.1   289      0.9   908.2    0.00       0    51.2
 329   18:10   40.8    29    0.1   298      0.7   908.3    0.00       0    50.9
 329   18:20   40.1    30    0.6     7      1.7   908.3    0.00       0    50.6
 329   18:30   39.3    36    0.9    18      1.8   908.3    0.00       0    50.3
 329   18:40   38.5    40    0.5     2      1.2   908.5    0.00       0    49.9
 329   18:50   38.0    38    0.9   354      1.9   908.5    0.00       0    49.7
 329   19:00   37.7    38    1.3   315      2.2   908.5    0.00       0    49.4
 329   19:10   37.4    37    0.4   350      1.7   908.5    0.00       0    49.2
 329   19:20   37.1    38    1.1   357      2.4   908.6    0.00       0    48.9
 329   19:30   36.5    40    0.9   320      2.6   908.6    0.00       0    48.6
 329   19:40   36.0    41    0.8     7      1.7   908.7    0.00       0    48.4
 329   19:50   35.3    43    0.4    49      2.0   908.8    0.00       0    48.2
 329   20:00   34.6    45    0.0     0      0.0   908.9    0.00       0    47.9
 329   20:10   34.2    45    0.1    70      1.2   909.0    0.00       0    47.7
 329   20:20   34.5    44    1.7    58      2.6   909.0    0.00       0    47.5
 329   20:30   34.8    42    0.8    34      1.8   909.0    0.00       0    47.3
 329   20:40   34.2    43    0.2   307      0.9   909.1    0.00       0    47.1
 329   20:50   33.6    44    1.0   280      2.1   909.1    0.00       0    46.9
 329   21:00   33.3    44    0.3   354      1.5   909.2    0.00       0    46.7
 329   21:10   32.8    45    0.0   358      0.6   909.4    0.00       0    46.5
 329   21:20   32.4    46    1.0    70      2.2   909.4    0.00       0    46.3
 329   21:30   32.1    48    0.3    44      1.1   909.4    0.00       0    46.1
 329   21:40   33.0    41    2.1    58      3.4   909.4    0.00       0    45.9
 329   21:50   34.4    38    1.2   358      2.4   909.3    0.00       0    45.8
 329   22:00   34.1    40    1.0   307      2.0   909.3    0.00       0    45.6
 329   22:10   32.8    43    1.3   255      2.5   909.4    0.00       0    45.4
 329   22:20   32.7    41    1.1   281      2.4   909.4    0.00       0    45.3
 329   22:30   32.5    42    0.7    66      2.3   909.4    0.00       0    45.2
 329   22:40   32.2    43    0.9    74      2.0   909.4    0.00       0    45.0
 329   22:50   32.5    42    1.3    49      2.8   909.5    0.00       0    44.9
 329   23:00   32.1    43    1.1   270      2.5   909.5    0.00       0    44.7
 329   23:10   31.8    44    1.3   286      2.9   909.5    0.00       0    44.6
 329   23:20   31.4    45    1.0   294      2.3   909.5    0.00       0    44.4
 329   23:30   31.1    46    0.5    36      1.1   909.5    0.00       0    44.3
 329   23:40   30.8    48    1.5    67      2.8   909.4    0.00       0    44.2
 329   23:50   30.7    47    0.6   268      1.7   909.4    0.00       0    44.0
 330    0:00   30.8    46    0.5    60      1.8   909.4    0.00       0    43.9
 330    0:10   30.8    46    1.2    56      2.9   909.4    0.00       0    43.8
 330    0:20   30.8    45    2.2    60      3.6   909.2    0.00       0    43.6
 330    0:30   31.0    45    0.9   299      2.6   909.2    0.00       0    43.5
 330    0:40   30.0    48    1.3   295      2.7   909.2    0.00       0    43.4
 330    0:50   29.5    49    1.5     4      2.2   909.1    0.00       0    43.3
 330    1:00   29.6    48    2.0    34      3.1   909.2    0.00       0    43.2
 330    1:10   29.1    52    1.3    63      2.0   909.2    0.00       0    43.1
 330    1:20   29.2    51    1.1    56      2.9   909.2    0.00       0    42.9
 330    1:30   28.9    51    0.0   330      0.6   909.4    0.00       0    42.8
 330    1:40   28.9    50    0.0     0      0.0   909.6    0.00       0    42.7
 330    1:50   28.6    51    0.0   259      0.7   909.6    0.00       0    42.6
 330    2:00   28.4    52    0.0   289      0.7   909.6    0.00       0    42.5
 330    2:10   28.7    51    1.0    62      2.5   909.7    0.00       0    42.4
 330    2:20   28.9    50    0.6    78      2.6   909.6    0.00       0    42.2
 330    2:30   28.8    50    0.5    66      1.6   909.6    0.00       0    42.1
 330    2:40   28.4    51    0.2    19      0.9   909.7    0.00       0    42.0
 330    2:50   27.9    52    0.0    23      0.4   909.7    0.00       0    41.9
 330    3:00   27.5    53    0.1   344      1.2   909.7    0.00       0    41.9
 330    3:10   27.4    54    0.9    74      3.1   909.7    0.00       0    41.8
 330    3:20   27.9    52    2.3    64      3.6   909.7    0.00       0    41.7
 330    3:30   28.6    50    1.2    60      3.1   909.6    0.00       0    41.5
 330    3:40   28.1    51    0.0     0      0.0   909.6    0.00       0    41.4
 330    3:50   27.6    53    0.3   348      1.0   909.5    0.00       0    41.4
 330    4:00   27.0    56    0.4    31      1.2   909.4    0.00       0    41.3
 330    4:10   26.1    62    1.4    38      2.3   909.5    0.00       0    41.2
 330    4:20   25.9    60    1.8    26      2.9   909.6    0.00       0    41.1
 330    4:30   25.8    58    1.3     4      2.0   909.6    0.00       0    41.0
 330    4:40   25.9    57    0.7   326      1.2   909.5    0.00       0    40.9
 330    4:50   25.5    59    0.8    23      1.4   909.7    0.00       0    40.8
 330    5:00   25.3    60    0.8    40      1.5   909.7    0.00       0    40.7
 330    5:10   25.1    61    0.4    21      2.0   909.7    0.00       0    40.6
 330    5:20   25.1    62    0.7    27      2.0   909.8    0.00       0    40.5
 330    5:30   24.9    63    0.6     4      1.0   909.9    0.00       0    40.4
 330    5:40   24.8    63    0.3     6      1.0   910.0    0.00       0    40.3
 330    5:50   24.7    63    0.1     2      0.8   910.1    0.00       0    40.2
 330    6:00   24.6    63    0.8    25      1.8   910.2    0.00       0    40.1
 330    6:10   24.6    64    1.2    49      2.1   910.4    0.00       0    40.0
 330    6:20   24.9    64    0.9     3      1.6   910.6    0.00       0    39.9
 330    6:30   24.4    64    0.3   298      1.0   910.8    0.00       0    39.8
 330    6:40   24.3    64    0.7   349      1.2   910.9    0.00       0    39.7
 330    6:50   24.2    67    1.0   358      1.9   911.0    0.00       6    39.6
 330    7:00   24.2    68    0.5   327      1.5   911.0    0.00      14    39.6
 330    7:10   24.4    69    0.2    50      1.3   911.0    0.00      14    39.5
 330    7:20   24.6    69    0.2    20      1.3   911.1    0.00      15    39.4
 330    7:30   25.6    66    0.7    13      1.8   911.2    0.00      17    39.4
 330    7:40   27.6    60    1.7    21      3.0   911.3    0.00      24    39.3
 330    7:50   29.6    57    0.9    27      2.0   911.3    0.00      27    39.4
 330    8:00   32.0    54    1.0    36      2.4   911.4    0.00      27    39.4
 330    8:10   33.8    52    0.3    68      1.4   911.5    0.00      27    39.4
 330    8:20   36.6    48    2.0    10      5.0   911.5    0.00      27    39.5
 330    8:30   39.1    42    3.5   360      6.1   911.4    0.00      27    39.6
 330    8:40   40.6    41    3.6   351      6.4   911.6    0.00      27    39.7
 330    8:50   42.1    38    3.6   347      5.8   911.7    0.00      27    39.9
 330    9:00   44.2    36    3.3   332      6.1   911.6    0.00      28    40.2
 330    9:10   45.8    34    3.4   315      7.1   911.6    0.00      41    40.4
 330    9:20   47.3    33    3.6   291      6.5   911.7    0.00      33    40.6
 330    9:30   48.0    32    2.8   306      6.5   911.6    0.00      35    40.8
 330    9:40   49.3    32    2.2   298      3.9   911.5    0.00      34    41.0
 330    9:50   50.6    30    2.5   317      4.7   911.5    0.00      37    41.3
 330   10:00   51.1    29    2.5   340      4.9   911.3    0.00     102    41.5
 330   10:10   51.4    29    2.4    33      4.1   911.2    0.00     135    41.8
 330   10:20   51.9    29    1.7    69      4.5   911.3    0.00      66    42.1
 330   10:30   53.1    28    1.6    44      5.2   911.3    0.00      61    42.6
 330   10:40   54.7    27    2.1   353      4.8   910.9    0.00      58    43.3
 330   10:50   55.3    26    2.2    16      6.1   910.6    0.00      74    44.2
 330   11:00   56.4    25    2.9   358      4.7   910.0    0.00      96    45.1
 330   11:10   58.4    24    1.7   338      3.9   909.7    0.00     286    46.0
 330   11:20   60.4    23    2.1   314      4.3   909.5    0.00     138    46.8
 330   11:30   60.8    22    2.6   353      6.4   909.2    0.00     226    47.4
 330   11:40   60.9    22    2.2   349      4.7   908.9    0.00     441    47.9
 330   11:50   61.6    22    3.0    18      6.1   908.6    0.00     654    48.3
 330   12:00   62.6    21    2.8     4      6.0   908.4    0.00     650    48.9
 330   12:10   63.1    20    3.0   358      6.1   908.1    0.00     646    49.7
 330   12:20   63.3    20    2.6    17      6.1   907.9    0.00     642    50.5
 330   12:30   64.9    20    2.5   360      5.8   907.8    0.00     633    51.3
 330   12:40   65.9    19    2.5   340      5.4   907.7    0.00     625    52.1
 330   12:50   66.1    18    2.6     2      5.0   907.5    0.00     610    52.9
 330   13:00   66.0    18    2.5    26      5.2   907.3    0.00     600    53.6
 330   13:10   67.1    18    2.3    16      4.9   907.0    0.00     579    54.3
 330   13:20   67.6    18    2.3     7      6.6   907.0    0.00     563    54.9
 330   13:30   67.7    17    3.0    14      6.4   906.8    0.00     540    55.4
 330   13:40   68.5    17    2.7   356      5.3   906.7    0.00     526    55.9
 330   13:50   68.9    16    2.3     8      5.3   906.5    0.00     502    56.3
 330   14:00   69.8    16    2.0     1      4.5   906.4    0.00     479    56.7
 330   14:10   69.9    15    2.2   357      4.2   906.2    0.00     452    57.1
 330   14:20   70.1    15    2.0   341      3.9   906.1    0.00     432    57.5
 330   14:30   71.2    14    1.2    12      3.6   906.1    0.00     399    57.8
 330   14:40   70.8    15    1.4   357      4.0   906.0    0.00     369    58.1
 330   14:50   71.5    14    1.3   352      2.5   905.9    0.00     342    58.4
 330   15:00   72.8    14    0.7     9      2.8   905.9    0.00     309    58.5
 330   15:10   72.0    14    1.2    13      2.3   905.9    0.00     278    58.7
 330   15:20   70.8    15    1.0    61      2.6   905.9    0.00     245    58.7
 330   15:30   71.3    15    0.4    37      1.5   905.9    0.00     220    58.7
 330   15:40   71.9    14    0.5    10      1.6   905.9    0.00     183    58.6
 330   15:50   71.1    15    0.2    60      1.0   905.8    0.00     146    58.4
 330   16:00   67.0    18    0.2    37      1.2   905.8    0.00      81    58.0
 330   16:10   64.1    21    0.5   265      3.1   905.8    0.00      13    57.6
 330   16:20   60.5    21    1.4   259      3.9   905.8    0.00       9    57.2
 330   16:30   57.7    22    0.5   268      3.3   905.9    0.00       6    56.7

Return to Alamo, Nevada graphs page.


Western Regional Climate Center,wrcc@dri.edu